sensor_id;sensor_type;location;lat;lon;timestamp;P1;durP1;ratioP1;P2;durP2;ratioP2
60006;SDS011;45863;50.336;3.536;2023-02-22T00:00:36;38.05;;;24.75;;
60006;SDS011;45863;50.336;3.536;2023-02-22T00:05:34;42.28;;;24.35;;
60006;SDS011;45863;50.336;3.536;2023-02-22T00:07:59;43.72;;;25.50;;
60006;SDS011;45863;50.336;3.536;2023-02-22T00:10:25;44.25;;;27.00;;
60006;SDS011;45863;50.336;3.536;2023-02-22T00:12:51;48.58;;;27.27;;
60006;SDS011;45863;50.336;3.536;2023-02-22T00:15:17;42.88;;;24.08;;
60006;SDS011;45863;50.336;3.536;2023-02-22T00:17:42;40.38;;;25.25;;
60006;SDS011;45863;50.336;3.536;2023-02-22T00:20:08;43.90;;;24.60;;
60006;SDS011;45863;50.336;3.536;2023-02-22T00:22:38;39.95;;;23.67;;
60006;SDS011;45863;50.336;3.536;2023-02-22T00:25:04;44.45;;;25.60;;
60006;SDS011;45863;50.336;3.536;2023-02-22T00:27:29;44.28;;;24.90;;
60006;SDS011;45863;50.336;3.536;2023-02-22T00:29:54;47.60;;;26.65;;
60006;SDS011;45863;50.336;3.536;2023-02-22T00:32:20;45.55;;;26.10;;
60006;SDS011;45863;50.336;3.536;2023-02-22T00:34:45;50.13;;;27.80;;
60006;SDS011;45863;50.336;3.536;2023-02-22T00:37:11;43.35;;;27.02;;
60006;SDS011;45863;50.336;3.536;2023-02-22T00:39:37;48.58;;;27.27;;
60006;SDS011;45863;50.336;3.536;2023-02-22T00:42:02;45.63;;;25.85;;
60006;SDS011;45863;50.336;3.536;2023-02-22T00:44:28;45.50;;;26.50;;
60006;SDS011;45863;50.336;3.536;2023-02-22T00:46:53;43.47;;;25.17;;
60006;SDS011;45863;50.336;3.536;2023-02-22T00:49:18;43.45;;;25.40;;
60006;SDS011;45863;50.336;3.536;2023-02-22T00:51:43;41.65;;;24.98;;
60006;SDS011;45863;50.336;3.536;2023-02-22T00:54:09;40.60;;;25.17;;
60006;SDS011;45863;50.336;3.536;2023-02-22T00:56:34;43.78;;;25.42;;
60006;SDS011;45863;50.336;3.536;2023-02-22T00:59:00;47.50;;;25.45;;
60006;SDS011;45863;50.336;3.536;2023-02-22T01:01:29;44.30;;;26.75;;
60006;SDS011;45863;50.336;3.536;2023-02-22T01:03:54;38.88;;;22.35;;
60006;SDS011;45863;50.336;3.536;2023-02-22T01:06:19;34.63;;;20.63;;
60006;SDS011;45863;50.336;3.536;2023-02-22T01:08:45;37.83;;;21.90;;
60006;SDS011;45863;50.336;3.536;2023-02-22T01:11:11;43.13;;;24.65;;
60006;SDS011;45863;50.336;3.536;2023-02-22T01:13:36;43.30;;;25.80;;
60006;SDS011;45863;50.336;3.536;2023-02-22T01:16:02;42.47;;;24.55;;
60006;SDS011;45863;50.336;3.536;2023-02-22T01:18:27;39.03;;;22.75;;
60006;SDS011;45863;50.336;3.536;2023-02-22T01:20:52;39.88;;;24.38;;
60006;SDS011;45863;50.336;3.536;2023-02-22T01:23:18;36.45;;;23.45;;
60006;SDS011;45863;50.336;3.536;2023-02-22T01:25:43;39.58;;;24.00;;
60006;SDS011;45863;50.336;3.536;2023-02-22T01:28:08;39.30;;;23.27;;
60006;SDS011;45863;50.336;3.536;2023-02-22T01:30:34;42.08;;;25.30;;
60006;SDS011;45863;50.336;3.536;2023-02-22T01:33:00;42.22;;;24.40;;
60006;SDS011;45863;50.336;3.536;2023-02-22T01:35:27;42.45;;;24.95;;
60006;SDS011;45863;50.336;3.536;2023-02-22T01:37:52;42.72;;;24.80;;
60006;SDS011;45863;50.336;3.536;2023-02-22T01:40:19;43.30;;;24.38;;
60006;SDS011;45863;50.336;3.536;2023-02-22T01:42:53;46.20;;;26.20;;
60006;SDS011;45863;50.336;3.536;2023-02-22T01:45:34;45.92;;;25.95;;
60006;SDS011;45863;50.336;3.536;2023-02-22T01:51:05;42.17;;;25.40;;
60006;SDS011;45863;50.336;3.536;2023-02-22T01:53:37;42.75;;;24.67;;
60006;SDS011;45863;50.336;3.536;2023-02-22T01:56:02;42.00;;;24.40;;
60006;SDS011;45863;50.336;3.536;2023-02-22T01:58:29;45.35;;;24.88;;
60006;SDS011;45863;50.336;3.536;2023-02-22T02:00:55;41.92;;;24.52;;
60006;SDS011;45863;50.336;3.536;2023-02-22T02:03:23;48.58;;;26.30;;
60006;SDS011;45863;50.336;3.536;2023-02-22T02:05:51;43.85;;;25.23;;
60006;SDS011;45863;50.336;3.536;2023-02-22T02:08:26;48.53;;;26.80;;
60006;SDS011;45863;50.336;3.536;2023-02-22T02:10:54;47.30;;;27.98;;
60006;SDS011;45863;50.336;3.536;2023-02-22T02:13:20;45.42;;;26.73;;
60006;SDS011;45863;50.336;3.536;2023-02-22T02:15:45;45.13;;;25.83;;
60006;SDS011;45863;50.336;3.536;2023-02-22T02:18:13;46.55;;;25.75;;
60006;SDS011;45863;50.336;3.536;2023-02-22T02:39:19;45.23;;;26.70;;
60006;SDS011;45863;50.336;3.536;2023-02-22T02:41:48;47.85;;;25.95;;
60006;SDS011;45863;50.336;3.536;2023-02-22T02:46:56;36.60;;;22.90;;
60006;SDS011;45863;50.336;3.536;2023-02-22T02:49:34;41.38;;;24.45;;
60006;SDS011;45863;50.336;3.536;2023-02-22T02:52:01;38.17;;;23.23;;
60006;SDS011;45863;50.336;3.536;2023-02-22T02:54:27;40.35;;;24.05;;
60006;SDS011;45863;50.336;3.536;2023-02-22T02:56:53;39.15;;;23.25;;
60006;SDS011;45863;50.336;3.536;2023-02-22T03:04:22;34.45;;;21.63;;
60006;SDS011;45863;50.336;3.536;2023-02-22T03:09:30;36.50;;;23.08;;
60006;SDS011;45863;50.336;3.536;2023-02-22T03:12:10;41.30;;;23.65;;
60006;SDS011;45863;50.336;3.536;2023-02-22T03:14:39;42.30;;;24.42;;
60006;SDS011;45863;50.336;3.536;2023-02-22T03:19:37;44.75;;;25.83;;
60006;SDS011;45863;50.336;3.536;2023-02-22T03:22:09;43.88;;;25.60;;
60006;SDS011;45863;50.336;3.536;2023-02-22T03:27:03;50.55;;;28.83;;
60006;SDS011;45863;50.336;3.536;2023-02-22T03:29:33;44.15;;;26.45;;
60006;SDS011;45863;50.336;3.536;2023-02-22T03:32:01;41.85;;;25.73;;
60006;SDS011;45863;50.336;3.536;2023-02-22T03:34:35;44.97;;;27.48;;
60006;SDS011;45863;50.336;3.536;2023-02-22T03:37:04;42.20;;;26.25;;
60006;SDS011;45863;50.336;3.536;2023-02-22T03:39:31;47.58;;;26.95;;
60006;SDS011;45863;50.336;3.536;2023-02-22T03:41:59;46.15;;;27.30;;
60006;SDS011;45863;50.336;3.536;2023-02-22T03:44:26;43.25;;;25.00;;
60006;SDS011;45863;50.336;3.536;2023-02-22T03:46:53;37.85;;;23.88;;
60006;SDS011;45863;50.336;3.536;2023-02-22T03:51:46;43.73;;;24.93;;
60006;SDS011;45863;50.336;3.536;2023-02-22T03:54:11;38.70;;;23.88;;
60006;SDS011;45863;50.336;3.536;2023-02-22T03:56:44;39.25;;;24.85;;
60006;SDS011;45863;50.336;3.536;2023-02-22T03:59:11;39.90;;;24.98;;
60006;SDS011;45863;50.336;3.536;2023-02-22T04:01:36;40.42;;;24.58;;
60006;SDS011;45863;50.336;3.536;2023-02-22T04:04:02;36.63;;;22.33;;
60006;SDS011;45863;50.336;3.536;2023-02-22T04:06:27;37.90;;;22.70;;
60006;SDS011;45863;50.336;3.536;2023-02-22T04:08:53;43.38;;;25.58;;
60006;SDS011;45863;50.336;3.536;2023-02-22T04:11:18;39.95;;;24.83;;
60006;SDS011;45863;50.336;3.536;2023-02-22T04:13:44;42.42;;;24.38;;
60006;SDS011;45863;50.336;3.536;2023-02-22T04:16:09;42.70;;;25.02;;
60006;SDS011;45863;50.336;3.536;2023-02-22T04:18:34;40.67;;;25.83;;
60006;SDS011;45863;50.336;3.536;2023-02-22T04:20:59;45.05;;;26.63;;
60006;SDS011;45863;50.336;3.536;2023-02-22T04:23:25;43.75;;;26.63;;
60006;SDS011;45863;50.336;3.536;2023-02-22T04:25:50;36.25;;;20.85;;
60006;SDS011;45863;50.336;3.536;2023-02-22T04:28:16;34.88;;;21.05;;
60006;SDS011;45863;50.336;3.536;2023-02-22T04:30:42;37.58;;;19.70;;
60006;SDS011;45863;50.336;3.536;2023-02-22T04:33:07;36.40;;;21.33;;
60006;SDS011;45863;50.336;3.536;2023-02-22T04:35:33;37.88;;;23.70;;
60006;SDS011;45863;50.336;3.536;2023-02-22T04:37:58;34.58;;;21.17;;
60006;SDS011;45863;50.336;3.536;2023-02-22T04:40:23;32.70;;;18.63;;
60006;SDS011;45863;50.336;3.536;2023-02-22T04:42:49;29.85;;;17.10;;
60006;SDS011;45863;50.336;3.536;2023-02-22T04:45:14;31.50;;;16.65;;
60006;SDS011;45863;50.336;3.536;2023-02-22T04:47:39;28.90;;;15.98;;
60006;SDS011;45863;50.336;3.536;2023-02-22T04:50:05;27.90;;;16.17;;
60006;SDS011;45863;50.336;3.536;2023-02-22T04:52:30;29.95;;;16.77;;
60006;SDS011;45863;50.336;3.536;2023-02-22T04:54:56;30.25;;;17.23;;
60006;SDS011;45863;50.336;3.536;2023-02-22T04:57:21;27.15;;;14.60;;
60006;SDS011;45863;50.336;3.536;2023-02-22T04:59:46;32.90;;;16.48;;
60006;SDS011;45863;50.336;3.536;2023-02-22T05:02:11;25.92;;;15.63;;
60006;SDS011;45863;50.336;3.536;2023-02-22T05:04:37;26.30;;;14.90;;
60006;SDS011;45863;50.336;3.536;2023-02-22T05:07:02;27.38;;;14.07;;
60006;SDS011;45863;50.336;3.536;2023-02-22T05:09:28;24.88;;;13.90;;
60006;SDS011;45863;50.336;3.536;2023-02-22T05:11:53;25.63;;;14.40;;
60006;SDS011;45863;50.336;3.536;2023-02-22T05:14:18;24.70;;;14.18;;
60006;SDS011;45863;50.336;3.536;2023-02-22T05:16:43;24.77;;;13.80;;
60006;SDS011;45863;50.336;3.536;2023-02-22T05:19:09;23.92;;;13.75;;
60006;SDS011;45863;50.336;3.536;2023-02-22T05:21:34;24.80;;;12.88;;
60006;SDS011;45863;50.336;3.536;2023-02-22T05:23:59;21.83;;;11.75;;
60006;SDS011;45863;50.336;3.536;2023-02-22T05:26:24;24.25;;;11.95;;
60006;SDS011;45863;50.336;3.536;2023-02-22T05:28:49;25.80;;;12.45;;
60006;SDS011;45863;50.336;3.536;2023-02-22T05:31:15;25.10;;;11.90;;
60006;SDS011;45863;50.336;3.536;2023-02-22T05:33:41;24.35;;;12.90;;
60006;SDS011;45863;50.336;3.536;2023-02-22T05:36:06;24.98;;;12.35;;
60006;SDS011;45863;50.336;3.536;2023-02-22T05:38:32;26.00;;;12.75;;
60006;SDS011;45863;50.336;3.536;2023-02-22T05:40:58;24.85;;;13.52;;
60006;SDS011;45863;50.336;3.536;2023-02-22T05:43:23;24.23;;;13.30;;
60006;SDS011;45863;50.336;3.536;2023-02-22T05:45:48;26.70;;;13.40;;
60006;SDS011;45863;50.336;3.536;2023-02-22T05:48:14;25.75;;;12.95;;
60006;SDS011;45863;50.336;3.536;2023-02-22T05:50:39;24.88;;;14.13;;
60006;SDS011;45863;50.336;3.536;2023-02-22T05:53:04;27.95;;;14.38;;
60006;SDS011;45863;50.336;3.536;2023-02-22T05:55:29;27.00;;;12.98;;
60006;SDS011;45863;50.336;3.536;2023-02-22T05:57:55;25.92;;;13.25;;
60006;SDS011;45863;50.336;3.536;2023-02-22T06:00:22;25.02;;;13.98;;
60006;SDS011;45863;50.336;3.536;2023-02-22T06:02:52;25.90;;;13.02;;
60006;SDS011;45863;50.336;3.536;2023-02-22T06:05:17;22.48;;;12.50;;
60006;SDS011;45863;50.336;3.536;2023-02-22T06:07:43;27.60;;;13.88;;
60006;SDS011;45863;50.336;3.536;2023-02-22T06:10:08;26.83;;;13.23;;
60006;SDS011;45863;50.336;3.536;2023-02-22T06:12:33;24.02;;;13.45;;
60006;SDS011;45863;50.336;3.536;2023-02-22T06:14:59;24.55;;;14.18;;
60006;SDS011;45863;50.336;3.536;2023-02-22T06:17:24;24.02;;;13.45;;
60006;SDS011;45863;50.336;3.536;2023-02-22T06:19:49;26.02;;;15.32;;
60006;SDS011;45863;50.336;3.536;2023-02-22T06:22:15;28.95;;;16.05;;
60006;SDS011;45863;50.336;3.536;2023-02-22T06:24:40;26.23;;;14.80;;
60006;SDS011;45863;50.336;3.536;2023-02-22T06:27:06;29.23;;;17.00;;
60006;SDS011;45863;50.336;3.536;2023-02-22T06:29:32;32.63;;;17.50;;
60006;SDS011;45863;50.336;3.536;2023-02-22T06:31:57;30.08;;;16.35;;
60006;SDS011;45863;50.336;3.536;2023-02-22T06:34:22;24.77;;;13.90;;
60006;SDS011;45863;50.336;3.536;2023-02-22T06:36:48;26.20;;;14.98;;
60006;SDS011;45863;50.336;3.536;2023-02-22T06:39:16;28.45;;;14.10;;
60006;SDS011;45863;50.336;3.536;2023-02-22T06:41:43;23.08;;;13.85;;
60006;SDS011;45863;50.336;3.536;2023-02-22T06:44:09;26.25;;;13.65;;
60006;SDS011;45863;50.336;3.536;2023-02-22T06:46:35;26.00;;;13.00;;
60006;SDS011;45863;50.336;3.536;2023-02-22T06:49:00;27.80;;;14.85;;
60006;SDS011;45863;50.336;3.536;2023-02-22T06:51:25;27.08;;;13.90;;
60006;SDS011;45863;50.336;3.536;2023-02-22T06:53:51;31.15;;;15.88;;
60006;SDS011;45863;50.336;3.536;2023-02-22T06:56:17;30.27;;;15.75;;
60006;SDS011;45863;50.336;3.536;2023-02-22T06:58:42;25.27;;;14.65;;
60006;SDS011;45863;50.336;3.536;2023-02-22T07:01:07;25.27;;;13.95;;
60006;SDS011;45863;50.336;3.536;2023-02-22T07:03:33;25.48;;;15.23;;
60006;SDS011;45863;50.336;3.536;2023-02-22T07:05:58;24.88;;;14.05;;
60006;SDS011;45863;50.336;3.536;2023-02-22T07:08:24;27.13;;;16.25;;
60006;SDS011;45863;50.336;3.536;2023-02-22T07:10:49;30.08;;;15.65;;
60006;SDS011;45863;50.336;3.536;2023-02-22T07:13:14;28.63;;;16.08;;
60006;SDS011;45863;50.336;3.536;2023-02-22T07:15:39;28.45;;;15.68;;
60006;SDS011;45863;50.336;3.536;2023-02-22T07:18:06;28.77;;;17.00;;
60006;SDS011;45863;50.336;3.536;2023-02-22T07:20:31;27.38;;;15.65;;
60006;SDS011;45863;50.336;3.536;2023-02-22T07:22:56;28.77;;;16.40;;
60006;SDS011;45863;50.336;3.536;2023-02-22T07:25:22;26.92;;;16.08;;
60006;SDS011;45863;50.336;3.536;2023-02-22T07:27:48;29.23;;;17.35;;
60006;SDS011;45863;50.336;3.536;2023-02-22T07:30:31;26.20;;;15.00;;
60006;SDS011;45863;50.336;3.536;2023-02-22T07:32:59;29.50;;;16.10;;
60006;SDS011;45863;50.336;3.536;2023-02-22T07:35:26;26.67;;;15.23;;
60006;SDS011;45863;50.336;3.536;2023-02-22T07:37:51;25.27;;;13.45;;
60006;SDS011;45863;50.336;3.536;2023-02-22T07:40:17;22.45;;;13.15;;
60006;SDS011;45863;50.336;3.536;2023-02-22T07:45:40;25.08;;;14.35;;
60006;SDS011;45863;50.336;3.536;2023-02-22T07:48:05;27.13;;;14.80;;
60006;SDS011;45863;50.336;3.536;2023-02-22T07:50:31;25.20;;;13.85;;
60006;SDS011;45863;50.336;3.536;2023-02-22T07:52:58;27.45;;;13.95;;
60006;SDS011;45863;50.336;3.536;2023-02-22T07:55:25;25.50;;;14.57;;
60006;SDS011;45863;50.336;3.536;2023-02-22T07:57:51;26.25;;;14.85;;
60006;SDS011;45863;50.336;3.536;2023-02-22T08:00:21;23.13;;;13.75;;
60006;SDS011;45863;50.336;3.536;2023-02-22T08:02:47;22.38;;;12.80;;
60006;SDS011;45863;50.336;3.536;2023-02-22T08:05:13;27.42;;;13.98;;
60006;SDS011;45863;50.336;3.536;2023-02-22T08:07:38;29.02;;;14.50;;
60006;SDS011;45863;50.336;3.536;2023-02-22T08:10:04;22.30;;;13.10;;
60006;SDS011;45863;50.336;3.536;2023-02-22T08:12:31;23.40;;;14.27;;
60006;SDS011;45863;50.336;3.536;2023-02-22T08:14:56;25.25;;;15.10;;
60006;SDS011;45863;50.336;3.536;2023-02-22T08:17:22;26.75;;;14.13;;
60006;SDS011;45863;50.336;3.536;2023-02-22T08:19:47;27.77;;;14.98;;
60006;SDS011;45863;50.336;3.536;2023-02-22T08:22:12;26.30;;;15.07;;
60006;SDS011;45863;50.336;3.536;2023-02-22T08:24:37;25.80;;;14.10;;
60006;SDS011;45863;50.336;3.536;2023-02-22T08:27:03;24.80;;;13.55;;
60006;SDS011;45863;50.336;3.536;2023-02-22T08:29:28;24.52;;;13.05;;
60006;SDS011;45863;50.336;3.536;2023-02-22T08:31:57;23.58;;;13.65;;
60006;SDS011;45863;50.336;3.536;2023-02-22T08:34:22;27.40;;;13.82;;
60006;SDS011;45863;50.336;3.536;2023-02-22T08:36:48;28.30;;;16.00;;
60006;SDS011;45863;50.336;3.536;2023-02-22T08:39:13;27.98;;;17.25;;
60006;SDS011;45863;50.336;3.536;2023-02-22T08:41:39;27.70;;;13.67;;
60006;SDS011;45863;50.336;3.536;2023-02-22T08:44:04;24.75;;;13.57;;
60006;SDS011;45863;50.336;3.536;2023-02-22T08:46:29;26.35;;;14.80;;
60006;SDS011;45863;50.336;3.536;2023-02-22T08:48:54;26.73;;;14.40;;
60006;SDS011;45863;50.336;3.536;2023-02-22T08:51:20;26.08;;;14.75;;
60006;SDS011;45863;50.336;3.536;2023-02-22T08:53:45;25.23;;;14.63;;
60006;SDS011;45863;50.336;3.536;2023-02-22T08:56:10;26.35;;;14.88;;
60006;SDS011;45863;50.336;3.536;2023-02-22T08:58:36;25.00;;;15.43;;
60006;SDS011;45863;50.336;3.536;2023-02-22T09:01:01;26.13;;;15.18;;
60006;SDS011;45863;50.336;3.536;2023-02-22T09:03:26;28.17;;;16.38;;
60006;SDS011;45863;50.336;3.536;2023-02-22T09:05:52;24.70;;;14.60;;
60006;SDS011;45863;50.336;3.536;2023-02-22T09:08:17;25.17;;;15.70;;
60006;SDS011;45863;50.336;3.536;2023-02-22T09:10:42;26.55;;;16.30;;
60006;SDS011;45863;50.336;3.536;2023-02-22T09:13:09;25.15;;;15.48;;
60006;SDS011;45863;50.336;3.536;2023-02-22T09:15:34;24.65;;;15.30;;
60006;SDS011;45863;50.336;3.536;2023-02-22T09:18:04;26.10;;;16.75;;
60006;SDS011;45863;50.336;3.536;2023-02-22T09:20:29;24.92;;;15.18;;
60006;SDS011;45863;50.336;3.536;2023-02-22T09:22:55;25.63;;;15.23;;
60006;SDS011;45863;50.336;3.536;2023-02-22T09:25:20;29.40;;;15.73;;
60006;SDS011;45863;50.336;3.536;2023-02-22T09:27:49;26.40;;;16.05;;
60006;SDS011;45863;50.336;3.536;2023-02-22T09:30:17;26.77;;;17.27;;
60006;SDS011;45863;50.336;3.536;2023-02-22T09:32:42;25.17;;;15.75;;
60006;SDS011;45863;50.336;3.536;2023-02-22T09:35:07;28.58;;;17.15;;
60006;SDS011;45863;50.336;3.536;2023-02-22T09:37:33;30.67;;;17.42;;
60006;SDS011;45863;50.336;3.536;2023-02-22T09:39:58;31.00;;;17.05;;
60006;SDS011;45863;50.336;3.536;2023-02-22T09:42:30;31.02;;;17.67;;
60006;SDS011;45863;50.336;3.536;2023-02-22T09:47:44;26.88;;;16.80;;
60006;SDS011;45863;50.336;3.536;2023-02-22T09:50:21;32.83;;;17.73;;
60006;SDS011;45863;50.336;3.536;2023-02-22T09:52:51;30.85;;;18.13;;
60006;SDS011;45863;50.336;3.536;2023-02-22T09:58:03;28.95;;;17.65;;
60006;SDS011;45863;50.336;3.536;2023-02-22T10:00:30;30.02;;;18.42;;
60006;SDS011;45863;50.336;3.536;2023-02-22T10:05:32;28.58;;;18.58;;
60006;SDS011;45863;50.336;3.536;2023-02-22T10:07:59;35.22;;;19.42;;
60006;SDS011;45863;50.336;3.536;2023-02-22T10:10:30;28.08;;;18.85;;
60006;SDS011;45863;50.336;3.536;2023-02-22T10:15:40;32.45;;;19.55;;
60006;SDS011;45863;50.336;3.536;2023-02-22T10:18:20;32.80;;;19.38;;
60006;SDS011;45863;50.336;3.536;2023-02-22T10:20:54;32.50;;;19.77;;
60006;SDS011;45863;50.336;3.536;2023-02-22T10:25:47;29.50;;;18.65;;
60006;SDS011;45863;50.336;3.536;2023-02-22T10:28:17;30.48;;;19.25;;
60006;SDS011;45863;50.336;3.536;2023-02-22T10:30:50;27.38;;;17.77;;
60006;SDS011;45863;50.336;3.536;2023-02-22T10:33:25;30.00;;;19.35;;
60006;SDS011;45863;50.336;3.536;2023-02-22T10:35:52;32.70;;;20.17;;
60006;SDS011;45863;50.336;3.536;2023-02-22T10:38:20;30.90;;;19.52;;
60006;SDS011;45863;50.336;3.536;2023-02-22T10:41:33;34.38;;;21.75;;
60006;SDS011;45863;50.336;3.536;2023-02-22T10:43:32;33.55;;;23.02;;
60006;SDS011;45863;50.336;3.536;2023-02-22T10:46:02;38.00;;;21.98;;
60006;SDS011;45863;50.336;3.536;2023-02-22T10:48:28;38.45;;;23.80;;
60006;SDS011;45863;50.336;3.536;2023-02-22T10:50:58;38.03;;;22.60;;
60006;SDS011;45863;50.336;3.536;2023-02-22T10:53:23;36.88;;;25.10;;
60006;SDS011;45863;50.336;3.536;2023-02-22T11:01:21;46.60;;;27.50;;
60006;SDS011;45863;50.336;3.536;2023-02-22T11:03:57;49.60;;;28.75;;
60006;SDS011;45863;50.336;3.536;2023-02-22T11:06:23;49.53;;;30.45;;
60006;SDS011;45863;50.336;3.536;2023-02-22T11:08:48;44.33;;;29.67;;
60006;SDS011;45863;50.336;3.536;2023-02-22T11:11:33;46.17;;;29.48;;
60006;SDS011;45863;50.336;3.536;2023-02-22T11:13:59;42.88;;;26.63;;
60006;SDS011;45863;50.336;3.536;2023-02-22T11:18:49;46.63;;;30.27;;
60006;SDS011;45863;50.336;3.536;2023-02-22T11:21:23;44.28;;;28.65;;
60006;SDS011;45863;50.336;3.536;2023-02-22T11:23:48;44.80;;;30.45;;
60006;SDS011;45863;50.336;3.536;2023-02-22T11:26:16;54.63;;;31.27;;
60006;SDS011;45863;50.336;3.536;2023-02-22T11:28:43;57.40;;;35.00;;
60006;SDS011;45863;50.336;3.536;2023-02-22T11:33:39;58.22;;;36.88;;
60006;SDS011;45863;50.336;3.536;2023-02-22T11:36:10;62.65;;;38.20;;
60006;SDS011;45863;50.336;3.536;2023-02-22T11:38:39;58.38;;;37.88;;
60006;SDS011;45863;50.336;3.536;2023-02-22T11:41:19;62.55;;;41.20;;
60006;SDS011;45863;50.336;3.536;2023-02-22T11:43:47;61.10;;;35.05;;
60006;SDS011;45863;50.336;3.536;2023-02-22T11:46:16;62.03;;;38.50;;
60006;SDS011;45863;50.336;3.536;2023-02-22T11:48:44;65.78;;;40.05;;
60006;SDS011;45863;50.336;3.536;2023-02-22T11:51:21;61.47;;;37.67;;
60006;SDS011;45863;50.336;3.536;2023-02-22T11:56:33;59.92;;;39.20;;
60006;SDS011;45863;50.336;3.536;2023-02-22T12:09:51;62.05;;;39.65;;
60006;SDS011;45863;50.336;3.536;2023-02-22T12:20:05;65.07;;;37.65;;
60006;SDS011;45863;50.336;3.536;2023-02-22T12:22:32;66.88;;;40.15;;
60006;SDS011;45863;50.336;3.536;2023-02-22T12:25:05;76.32;;;43.47;;
60006;SDS011;45863;50.336;3.536;2023-02-22T12:27:35;63.33;;;36.35;;
60006;SDS011;45863;50.336;3.536;2023-02-22T12:30:09;70.47;;;39.63;;
60006;SDS011;45863;50.336;3.536;2023-02-22T12:32:41;67.55;;;42.20;;
60006;SDS011;45863;50.336;3.536;2023-02-22T12:40:03;70.72;;;41.50;;
60006;SDS011;45863;50.336;3.536;2023-02-22T12:45:05;66.93;;;39.23;;
60006;SDS011;45863;50.336;3.536;2023-02-22T12:47:35;77.88;;;41.00;;
60006;SDS011;45863;50.336;3.536;2023-02-22T12:50:21;72.50;;;39.75;;
60006;SDS011;45863;50.336;3.536;2023-02-22T12:55:30;74.78;;;42.63;;
60006;SDS011;45863;50.336;3.536;2023-02-22T13:03:27;82.57;;;45.80;;
60006;SDS011;45863;50.336;3.536;2023-02-22T13:05:54;79.10;;;45.75;;
60006;SDS011;45863;50.336;3.536;2023-02-22T13:13:29;75.57;;;42.70;;
60006;SDS011;45863;50.336;3.536;2023-02-22T13:16:17;79.53;;;44.40;;
60006;SDS011;45863;50.336;3.536;2023-02-22T13:21:22;80.45;;;45.83;;
60006;SDS011;45863;50.336;3.536;2023-02-22T13:29:07;72.90;;;38.05;;
60006;SDS011;45863;50.336;3.536;2023-02-22T13:34:43;74.82;;;42.97;;
60006;SDS011;45863;50.336;3.536;2023-02-22T13:42:47;74.63;;;39.33;;
60006;SDS011;45863;50.336;3.536;2023-02-22T13:45:38;79.10;;;45.03;;
60006;SDS011;45863;50.336;3.536;2023-02-22T13:53:21;76.50;;;38.15;;
60006;SDS011;45863;50.336;3.536;2023-02-22T13:55:50;79.13;;;41.85;;
60006;SDS011;45863;50.336;3.536;2023-02-22T13:58:16;81.78;;;43.00;;
60006;SDS011;45863;50.336;3.536;2023-02-22T14:00:45;83.57;;;43.45;;
60006;SDS011;45863;50.336;3.536;2023-02-22T14:05:45;84.67;;;43.23;;
60006;SDS011;45863;50.336;3.536;2023-02-22T14:13:07;76.47;;;41.77;;
60006;SDS011;45863;50.336;3.536;2023-02-22T14:15:33;78.22;;;42.58;;
60006;SDS011;45863;50.336;3.536;2023-02-22T14:17:59;78.53;;;42.55;;
60006;SDS011;45863;50.336;3.536;2023-02-22T14:25:41;74.90;;;43.70;;
60006;SDS011;45863;50.336;3.536;2023-02-22T14:28:08;78.55;;;44.28;;
60006;SDS011;45863;50.336;3.536;2023-02-22T14:31:02;75.13;;;42.50;;
60006;SDS011;45863;50.336;3.536;2023-02-22T14:36:12;74.38;;;43.13;;
60006;SDS011;45863;50.336;3.536;2023-02-22T14:38:37;73.93;;;41.65;;
60006;SDS011;45863;50.336;3.536;2023-02-22T14:41:03;80.20;;;43.15;;
60006;SDS011;45863;50.336;3.536;2023-02-22T14:43:29;73.15;;;41.65;;
60006;SDS011;45863;50.336;3.536;2023-02-22T14:45:55;73.60;;;40.47;;
60006;SDS011;45863;50.336;3.536;2023-02-22T14:48:22;71.80;;;40.05;;
60006;SDS011;45863;50.336;3.536;2023-02-22T14:51:32;70.78;;;39.38;;
60006;SDS011;45863;50.336;3.536;2023-02-22T14:58:40;79.18;;;43.70;;
60006;SDS011;45863;50.336;3.536;2023-02-22T15:03:44;75.03;;;38.80;;
60006;SDS011;45863;50.336;3.536;2023-02-22T15:06:20;73.05;;;39.30;;
60006;SDS011;45863;50.336;3.536;2023-02-22T15:08:46;73.75;;;42.63;;
60006;SDS011;45863;50.336;3.536;2023-02-22T15:11:23;72.90;;;40.53;;
60006;SDS011;45863;50.336;3.536;2023-02-22T15:13:52;70.88;;;39.70;;
60006;SDS011;45863;50.336;3.536;2023-02-22T15:16:17;77.38;;;42.38;;
60006;SDS011;45863;50.336;3.536;2023-02-22T15:18:44;76.68;;;38.80;;
60006;SDS011;45863;50.336;3.536;2023-02-22T15:23:58;80.07;;;41.97;;
60006;SDS011;45863;50.336;3.536;2023-02-22T15:26:26;72.68;;;40.67;;
60006;SDS011;45863;50.336;3.536;2023-02-22T15:28:54;74.32;;;41.60;;
60006;SDS011;45863;50.336;3.536;2023-02-22T15:31:21;69.57;;;39.28;;
60006;SDS011;45863;50.336;3.536;2023-02-22T15:33:48;74.50;;;39.95;;
60006;SDS011;45863;50.336;3.536;2023-02-22T15:36:17;75.32;;;41.35;;
60006;SDS011;45863;50.336;3.536;2023-02-22T15:38:46;72.93;;;40.67;;
60006;SDS011;45863;50.336;3.536;2023-02-22T15:41:18;74.57;;;40.50;;
60006;SDS011;45863;50.336;3.536;2023-02-22T15:43:44;67.75;;;37.15;;
60006;SDS011;45863;50.336;3.536;2023-02-22T15:46:21;77.10;;;41.85;;
60006;SDS011;45863;50.336;3.536;2023-02-22T15:49:02;71.43;;;39.88;;
60006;SDS011;45863;50.336;3.536;2023-02-22T15:51:27;76.22;;;40.40;;
60006;SDS011;45863;50.336;3.536;2023-02-22T15:53:53;74.10;;;42.95;;
60006;SDS011;45863;50.336;3.536;2023-02-22T15:56:22;72.13;;;40.25;;
60006;SDS011;45863;50.336;3.536;2023-02-22T15:58:49;66.93;;;37.50;;
60006;SDS011;45863;50.336;3.536;2023-02-22T16:01:16;72.72;;;38.78;;
60006;SDS011;45863;50.336;3.536;2023-02-22T16:03:46;73.90;;;40.20;;
60006;SDS011;45863;50.336;3.536;2023-02-22T16:08:52;71.15;;;39.85;;
60006;SDS011;45863;50.336;3.536;2023-02-22T16:14:22;68.22;;;38.05;;
60006;SDS011;45863;50.336;3.536;2023-02-22T16:16:36;75.05;;;42.63;;
60006;SDS011;45863;50.336;3.536;2023-02-22T16:22:01;68.80;;;39.50;;
60006;SDS011;45863;50.336;3.536;2023-02-22T16:24:28;72.00;;;42.25;;
60006;SDS011;45863;50.336;3.536;2023-02-22T16:27:04;74.45;;;41.67;;
60006;SDS011;45863;50.336;3.536;2023-02-22T16:29:30;77.07;;;42.80;;
60006;SDS011;45863;50.336;3.536;2023-02-22T16:31:55;75.32;;;39.80;;
60006;SDS011;45863;50.336;3.536;2023-02-22T16:34:20;74.80;;;39.05;;
60006;SDS011;45863;50.336;3.536;2023-02-22T16:36:46;77.75;;;40.97;;
60006;SDS011;45863;50.336;3.536;2023-02-22T16:39:16;71.45;;;41.90;;
60006;SDS011;45863;50.336;3.536;2023-02-22T16:41:43;74.15;;;39.97;;
60006;SDS011;45863;50.336;3.536;2023-02-22T16:44:09;70.85;;;42.58;;
60006;SDS011;45863;50.336;3.536;2023-02-22T16:46:36;74.45;;;42.25;;
60006;SDS011;45863;50.336;3.536;2023-02-22T16:49:01;71.55;;;39.05;;
60006;SDS011;45863;50.336;3.536;2023-02-22T16:51:27;76.13;;;41.42;;
60006;SDS011;45863;50.336;3.536;2023-02-22T16:53:55;76.22;;;42.15;;
60006;SDS011;45863;50.336;3.536;2023-02-22T16:56:27;81.25;;;43.50;;
60006;SDS011;45863;50.336;3.536;2023-02-22T16:58:53;82.25;;;44.25;;
60006;SDS011;45863;50.336;3.536;2023-02-22T17:01:18;85.82;;;44.50;;
60006;SDS011;45863;50.336;3.536;2023-02-22T17:03:44;84.13;;;45.67;;
60006;SDS011;45863;50.336;3.536;2023-02-22T17:06:09;82.10;;;46.63;;
60006;SDS011;45863;50.336;3.536;2023-02-22T17:08:35;80.25;;;42.83;;